sensor_id;sensor_type;location;lat;lon;timestamp;pressure;altitude;pressure_sealevel;temperature;humidity
61357;BME280;47227;46.752;23.576;2023-04-01T00:02:59;95068.02;;;8.02;86.86
61357;BME280;47227;46.752;23.576;2023-04-01T00:05:50;95065.41;;;8.05;87.33
61357;BME280;47227;46.752;23.576;2023-04-01T00:09:00;95063.08;;;8.00;89.43
61357;BME280;47227;46.752;23.576;2023-04-01T00:11:34;95066.26;;;8.05;87.50
61357;BME280;47227;46.752;23.576;2023-04-01T00:14:04;95066.36;;;8.09;86.84
61357;BME280;47227;46.752;23.576;2023-04-01T00:16:38;95064.48;;;8.14;87.67
61357;BME280;47227;46.752;23.576;2023-04-01T00:19:27;95055.55;;;8.16;86.82
61357;BME280;47227;46.752;23.576;2023-04-01T00:22:24;95042.64;;;8.18;87.76
61357;BME280;47227;46.752;23.576;2023-04-01T00:25:16;95029.70;;;8.18;87.55
61357;BME280;47227;46.752;23.576;2023-04-01T00:27:45;95030.37;;;8.20;87.32
61357;BME280;47227;46.752;23.576;2023-04-01T00:30:37;95023.48;;;8.18;89.17
61357;BME280;47227;46.752;23.576;2023-04-01T00:33:26;95017.15;;;8.13;88.50
61357;BME280;47227;46.752;23.576;2023-04-01T00:36:20;95016.23;;;8.08;89.35
61357;BME280;47227;46.752;23.576;2023-04-01T00:39:21;95018.57;;;8.00;90.76
61357;BME280;47227;46.752;23.576;2023-04-01T00:42:14;95004.21;;;7.98;90.99
61357;BME280;47227;46.752;23.576;2023-04-01T00:44:49;95004.73;;;7.99;89.61
61357;BME280;47227;46.752;23.576;2023-04-01T00:47:19;95007.87;;;7.99;89.52
61357;BME280;47227;46.752;23.576;2023-04-01T00:50:27;95002.02;;;7.93;91.05
61357;BME280;47227;46.752;23.576;2023-04-01T00:53:17;94998.84;;;7.94;90.55
61357;BME280;47227;46.752;23.576;2023-04-01T00:55:57;94997.84;;;7.94;90.57
61357;BME280;47227;46.752;23.576;2023-04-01T00:59:06;94996.64;;;7.95;90.09
61357;BME280;47227;46.752;23.576;2023-04-01T01:01:38;94987.55;;;7.94;89.88
61357;BME280;47227;46.752;23.576;2023-04-01T01:04:46;94981.87;;;7.95;88.83
61357;BME280;47227;46.752;23.576;2023-04-01T01:07:37;94985.11;;;7.94;88.60
61357;BME280;47227;46.752;23.576;2023-04-01T01:10:35;94979.73;;;7.93;87.86
61357;BME280;47227;46.752;23.576;2023-04-01T01:13:38;94983.70;;;7.91;87.57
61357;BME280;47227;46.752;23.576;2023-04-01T01:16:16;94980.14;;;7.88;87.67
61357;BME280;47227;46.752;23.576;2023-04-01T01:19:09;94975.75;;;7.86;88.95
61357;BME280;47227;46.752;23.576;2023-04-01T01:28:13;94962.76;;;7.86;89.32
61357;BME280;47227;46.752;23.576;2023-04-01T01:34:12;94965.27;;;7.89;90.25
61357;BME280;47227;46.752;23.576;2023-04-01T01:37:02;94965.52;;;7.89;91.83
61357;BME280;47227;46.752;23.576;2023-04-01T01:39:41;94963.64;;;7.77;93.54
61357;BME280;47227;46.752;23.576;2023-04-01T01:42:35;94965.62;;;7.74;93.77
61357;BME280;47227;46.752;23.576;2023-04-01T01:45:28;94966.98;;;7.70;94.42
61357;BME280;47227;46.752;23.576;2023-04-01T01:48:38;94976.79;;;7.64;95.04
61357;BME280;47227;46.752;23.576;2023-04-01T01:51:46;94986.34;;;7.69;94.47
61357;BME280;47227;46.752;23.576;2023-04-01T01:54:36;94991.40;;;7.65;94.65
61357;BME280;47227;46.752;23.576;2023-04-01T01:57:23;94986.18;;;7.66;94.17
61357;BME280;47227;46.752;23.576;2023-04-01T02:00:34;94986.13;;;7.58;95.35
61357;BME280;47227;46.752;23.576;2023-04-01T02:03:24;94985.50;;;7.60;95.57
61357;BME280;47227;46.752;23.576;2023-04-01T02:06:44;94985.77;;;7.61;95.18
61357;BME280;47227;46.752;23.576;2023-04-01T02:09:59;94989.37;;;7.59;95.77
61357;BME280;47227;46.752;23.576;2023-04-01T02:13:17;94997.92;;;7.64;94.91
61357;BME280;47227;46.752;23.576;2023-04-01T02:16:33;95003.06;;;7.75;93.60
61357;BME280;47227;46.752;23.576;2023-04-01T02:20:00;95004.89;;;7.83;92.85
61357;BME280;47227;46.752;23.576;2023-04-01T02:23:15;95006.08;;;7.87;92.12
61357;BME280;47227;46.752;23.576;2023-04-01T02:26:07;94998.26;;;7.89;91.96
61357;BME280;47227;46.752;23.576;2023-04-01T02:29:25;94987.09;;;7.86;91.84
61357;BME280;47227;46.752;23.576;2023-04-01T02:32:43;94979.83;;;7.83;91.38
61357;BME280;47227;46.752;23.576;2023-04-01T02:50:20;94953.82;;;7.62;94.06
61357;BME280;47227;46.752;23.576;2023-04-01T02:52:49;94958.27;;;7.58;95.31
61357;BME280;47227;46.752;23.576;2023-04-01T02:55:17;94957.17;;;7.55;96.01
61357;BME280;47227;46.752;23.576;2023-04-01T02:57:46;94951.68;;;7.54;97.04
61357;BME280;47227;46.752;23.576;2023-04-01T03:00:16;94938.85;;;7.53;97.61
61357;BME280;47227;46.752;23.576;2023-04-01T03:02:44;94939.22;;;7.55;97.63
61357;BME280;47227;46.752;23.576;2023-04-01T03:05:12;94943.44;;;7.58;97.12
61357;BME280;47227;46.752;23.576;2023-04-01T03:07:41;94943.75;;;7.63;96.44
61357;BME280;47227;46.752;23.576;2023-04-01T03:10:09;94940.89;;;7.67;96.17
61357;BME280;47227;46.752;23.576;2023-04-01T03:12:38;94942.14;;;7.73;95.07
61357;BME280;47227;46.752;23.576;2023-04-01T03:15:13;94943.28;;;7.78;94.94
61357;BME280;47227;46.752;23.576;2023-04-01T03:17:42;94943.97;;;7.84;94.31
61357;BME280;47227;46.752;23.576;2023-04-01T03:20:11;94945.59;;;7.88;93.76
61357;BME280;47227;46.752;23.576;2023-04-01T03:22:41;94942.91;;;7.90;93.43
61357;BME280;47227;46.752;23.576;2023-04-01T03:25:10;94942.64;;;7.92;93.07
61357;BME280;47227;46.752;23.576;2023-04-01T03:27:39;94944.27;;;7.95;92.60
61357;BME280;47227;46.752;23.576;2023-04-01T03:30:08;94938.52;;;7.95;92.43
61357;BME280;47227;46.752;23.576;2023-04-01T03:32:41;94927.35;;;7.91;92.07
61357;BME280;47227;46.752;23.576;2023-04-01T03:35:11;94926.16;;;7.84;91.88
61357;BME280;47227;46.752;23.576;2023-04-01T03:37:43;94931.13;;;7.77;91.71
61357;BME280;47227;46.752;23.576;2023-04-01T03:40:12;94927.12;;;7.70;92.28
61357;BME280;47227;46.752;23.576;2023-04-01T03:42:41;94924.39;;;7.65;91.71
61357;BME280;47227;46.752;23.576;2023-04-01T03:45:10;94934.10;;;7.61;91.94
61357;BME280;47227;46.752;23.576;2023-04-01T03:47:40;94934.42;;;7.57;92.25
61357;BME280;47227;46.752;23.576;2023-04-01T03:50:09;94933.52;;;7.52;92.36
61357;BME280;47227;46.752;23.576;2023-04-01T03:52:38;94938.01;;;7.48;93.29
61357;BME280;47227;46.752;23.576;2023-04-01T03:55:06;94951.48;;;7.46;93.11
61357;BME280;47227;46.752;23.576;2023-04-01T03:57:35;94949.70;;;7.43;93.94
61357;BME280;47227;46.752;23.576;2023-04-01T04:00:07;94950.94;;;7.35;96.03
61357;BME280;47227;46.752;23.576;2023-04-01T04:02:40;94945.29;;;7.28;96.97
61357;BME280;47227;46.752;23.576;2023-04-01T04:05:09;94943.89;;;7.32;95.88
61357;BME280;47227;46.752;23.576;2023-04-01T04:07:38;94938.10;;;7.34;95.70
61357;BME280;47227;46.752;23.576;2023-04-01T04:10:08;94929.86;;;7.33;96.12
61357;BME280;47227;46.752;23.576;2023-04-01T04:12:36;94936.27;;;7.37;95.75
61357;BME280;47227;46.752;23.576;2023-04-01T04:15:04;94945.14;;;7.42;94.81
61357;BME280;47227;46.752;23.576;2023-04-01T04:17:32;94947.24;;;7.49;94.26
61357;BME280;47227;46.752;23.576;2023-04-01T04:20:01;94937.86;;;7.54;94.49
61357;BME280;47227;46.752;23.576;2023-04-01T04:22:29;94936.71;;;7.60;94.04
61357;BME280;47227;46.752;23.576;2023-04-01T04:24:57;94936.77;;;7.65;93.63
61357;BME280;47227;46.752;23.576;2023-04-01T04:27:25;94938.13;;;7.69;93.34
61357;BME280;47227;46.752;23.576;2023-04-01T04:30:02;94937.70;;;7.74;93.09
61357;BME280;47227;46.752;23.576;2023-04-01T04:32:30;94937.44;;;7.79;93.02
61357;BME280;47227;46.752;23.576;2023-04-01T04:34:58;94943.29;;;7.82;92.49
61357;BME280;47227;46.752;23.576;2023-04-01T04:37:26;94938.48;;;7.78;92.92
61357;BME280;47227;46.752;23.576;2023-04-01T04:39:54;94928.30;;;7.65;94.27
61357;BME280;47227;46.752;23.576;2023-04-01T04:42:22;94926.07;;;7.57;94.53
61357;BME280;47227;46.752;23.576;2023-04-01T04:44:53;94923.09;;;7.55;94.66
61357;BME280;47227;46.752;23.576;2023-04-01T04:47:21;94925.70;;;7.54;94.76
61357;BME280;47227;46.752;23.576;2023-04-01T04:49:49;94927.99;;;7.51;95.81
61357;BME280;47227;46.752;23.576;2023-04-01T04:52:18;94915.94;;;7.44;96.72
61357;BME280;47227;46.752;23.576;2023-04-01T04:54:46;94913.17;;;7.43;96.26
61357;BME280;47227;46.752;23.576;2023-04-01T04:57:14;94919.59;;;7.47;95.24
61357;BME280;47227;46.752;23.576;2023-04-01T04:59:46;94917.19;;;7.51;94.87
61357;BME280;47227;46.752;23.576;2023-04-01T05:02:22;94921.69;;;7.49;95.55
61357;BME280;47227;46.752;23.576;2023-04-01T05:04:50;94917.23;;;7.41;96.70
61357;BME280;47227;46.752;23.576;2023-04-01T05:07:18;94915.27;;;7.41;96.63
61357;BME280;47227;46.752;23.576;2023-04-01T05:09:46;94915.83;;;7.41;95.58
61357;BME280;47227;46.752;23.576;2023-04-01T05:12:14;94917.61;;;7.45;94.78
61357;BME280;47227;46.752;23.576;2023-04-01T05:14:55;94912.50;;;7.53;94.44
61357;BME280;47227;46.752;23.576;2023-04-01T05:17:23;94905.09;;;7.59;94.40
61357;BME280;47227;46.752;23.576;2023-04-01T05:19:52;94903.31;;;7.65;93.96
61357;BME280;47227;46.752;23.576;2023-04-01T05:22:20;94903.98;;;7.71;93.81
61357;BME280;47227;46.752;23.576;2023-04-01T05:24:48;94904.14;;;7.81;93.68
61357;BME280;47227;46.752;23.576;2023-04-01T05:27:16;94899.06;;;7.88;93.62
61357;BME280;47227;46.752;23.576;2023-04-01T05:29:44;94896.48;;;7.95;93.40
61357;BME280;47227;46.752;23.576;2023-04-01T05:32:30;94894.04;;;7.95;93.83
61357;BME280;47227;46.752;23.576;2023-04-01T05:34:58;94887.92;;;7.95;93.82
61357;BME280;47227;46.752;23.576;2023-04-01T05:37:26;94891.05;;;8.00;94.12
61357;BME280;47227;46.752;23.576;2023-04-01T05:39:55;94891.83;;;7.93;94.82
61357;BME280;47227;46.752;23.576;2023-04-01T05:42:23;94893.30;;;7.99;93.95
61357;BME280;47227;46.752;23.576;2023-04-01T05:44:51;94894.31;;;8.08;93.47
61357;BME280;47227;46.752;23.576;2023-04-01T05:47:36;94893.75;;;8.09;93.88
61357;BME280;47227;46.752;23.576;2023-04-01T05:50:04;94892.64;;;8.13;93.46
61357;BME280;47227;46.752;23.576;2023-04-01T05:52:32;94887.55;;;8.21;93.24
61357;BME280;47227;46.752;23.576;2023-04-01T05:55:00;94886.70;;;8.28;93.41
61357;BME280;47227;46.752;23.576;2023-04-01T05:57:28;94891.33;;;8.32;92.75
61357;BME280;47227;46.752;23.576;2023-04-01T05:59:56;94892.16;;;8.32;92.15
61357;BME280;47227;46.752;23.576;2023-04-01T06:02:24;94894.73;;;8.31;91.99
61357;BME280;47227;46.752;23.576;2023-04-01T06:05:02;94892.73;;;8.33;91.70
61357;BME280;47227;46.752;23.576;2023-04-01T06:07:30;94884.13;;;8.30;92.38
61357;BME280;47227;46.752;23.576;2023-04-01T06:09:59;94883.31;;;8.24;92.81
61357;BME280;47227;46.752;23.576;2023-04-01T06:12:45;94887.34;;;8.22;92.20
61357;BME280;47227;46.752;23.576;2023-04-01T06:15:26;94893.60;;;8.23;91.80
61357;BME280;47227;46.752;23.576;2023-04-01T06:18:21;94891.16;;;8.25;91.60
61357;BME280;47227;46.752;23.576;2023-04-01T06:21:24;94892.16;;;8.19;92.87
61357;BME280;47227;46.752;23.576;2023-04-01T06:24:19;94895.67;;;8.09;93.86
61357;BME280;47227;46.752;23.576;2023-04-01T06:30:07;94895.21;;;8.06;93.17
61357;BME280;47227;46.752;23.576;2023-04-01T06:33:00;94892.80;;;8.14;92.98
61357;BME280;47227;46.752;23.576;2023-04-01T06:38:50;94887.63;;;8.30;91.89
61357;BME280;47227;46.752;23.576;2023-04-01T06:41:35;94887.52;;;8.38;91.70
61357;BME280;47227;46.752;23.576;2023-04-01T06:47:51;94882.64;;;8.69;91.68
61357;BME280;47227;46.752;23.576;2023-04-01T06:50:57;94881.98;;;8.84;91.35
61357;BME280;47227;46.752;23.576;2023-04-01T06:56:56;94888.98;;;9.12;90.64
61357;BME280;47227;46.752;23.576;2023-04-01T06:59:30;94893.17;;;9.20;90.65
61357;BME280;47227;46.752;23.576;2023-04-01T07:02:19;94898.68;;;9.26;89.95
61357;BME280;47227;46.752;23.576;2023-04-01T07:04:51;94897.45;;;9.22;88.63
61357;BME280;47227;46.752;23.576;2023-04-01T07:07:35;94895.21;;;9.20;88.85
61357;BME280;47227;46.752;23.576;2023-04-01T07:10:32;94899.13;;;9.21;88.74
61357;BME280;47227;46.752;23.576;2023-04-01T07:13:29;94905.45;;;9.24;88.69
61357;BME280;47227;46.752;23.576;2023-04-01T07:16:14;94901.86;;;9.22;88.25
61357;BME280;47227;46.752;23.576;2023-04-01T07:18:58;94907.36;;;9.19;88.12
61357;BME280;47227;46.752;23.576;2023-04-01T07:21:42;94909.48;;;9.16;88.04
61357;BME280;47227;46.752;23.576;2023-04-01T07:24:36;94909.67;;;9.08;87.67
61357;BME280;47227;46.752;23.576;2023-04-01T07:27:10;94904.02;;;9.03;87.75
61357;BME280;47227;46.752;23.576;2023-04-01T07:29:40;94900.41;;;8.91;88.49
61357;BME280;47227;46.752;23.576;2023-04-01T07:35:17;94911.15;;;8.63;90.62
61357;BME280;47227;46.752;23.576;2023-04-01T07:38:08;94906.61;;;8.47;91.60
61357;BME280;47227;46.752;23.576;2023-04-01T07:40:48;94909.34;;;8.45;91.38
61357;BME280;47227;46.752;23.576;2023-04-01T07:43:35;94904.17;;;8.45;91.33
61357;BME280;47227;46.752;23.576;2023-04-01T07:46:41;94899.41;;;8.47;92.40
61357;BME280;47227;46.752;23.576;2023-04-01T07:49:21;94900.28;;;8.50;92.72
61357;BME280;47227;46.752;23.576;2023-04-01T07:52:05;94901.89;;;8.55;91.70
61357;BME280;47227;46.752;23.576;2023-04-01T07:54:49;94906.09;;;8.65;91.29
61357;BME280;47227;46.752;23.576;2023-04-01T07:57:29;94902.70;;;8.74;90.99
61357;BME280;47227;46.752;23.576;2023-04-01T08:00:09;94902.69;;;8.64;91.05
61357;BME280;47227;46.752;23.576;2023-04-01T08:03:03;94906.35;;;8.63;90.85
61357;BME280;47227;46.752;23.576;2023-04-01T08:05:49;94912.23;;;8.71;90.62
61357;BME280;47227;46.752;23.576;2023-04-01T08:08:36;94910.76;;;8.83;90.41
61357;BME280;47227;46.752;23.576;2023-04-01T08:15:01;94902.86;;;8.93;89.41
61357;BME280;47227;46.752;23.576;2023-04-01T08:20:48;94901.80;;;9.05;89.52
61357;BME280;47227;46.752;23.576;2023-04-01T08:23:33;94895.86;;;9.09;89.50
61357;BME280;47227;46.752;23.576;2023-04-01T08:26:17;94895.26;;;9.06;88.94
61357;BME280;47227;46.752;23.576;2023-04-01T08:29:11;94896.19;;;9.07;89.44
61357;BME280;47227;46.752;23.576;2023-04-01T08:32:06;94895.35;;;9.07;89.27
61357;BME280;47227;46.752;23.576;2023-04-01T08:34:50;94888.81;;;9.07;88.95
61357;BME280;47227;46.752;23.576;2023-04-01T08:38:06;94892.94;;;9.15;89.92
61357;BME280;47227;46.752;23.576;2023-04-01T08:41:08;94900.52;;;9.33;89.53
61357;BME280;47227;46.752;23.576;2023-04-01T08:50:56;94889.95;;;9.97;88.46
61357;BME280;47227;46.752;23.576;2023-04-01T08:57:09;94868.84;;;10.55;86.11
61357;BME280;47227;46.752;23.576;2023-04-01T09:03:44;94877.54;;;11.13;82.16
61357;BME280;47227;46.752;23.576;2023-04-01T09:06:47;94885.38;;;11.26;81.66
61357;BME280;47227;46.752;23.576;2023-04-01T09:09:33;94889.10;;;11.47;81.91
61357;BME280;47227;46.752;23.576;2023-04-01T09:16:19;94872.77;;;11.87;78.17
61357;BME280;47227;46.752;23.576;2023-04-01T09:19:40;94868.23;;;12.13;77.99
61357;BME280;47227;46.752;23.576;2023-04-01T09:25:36;94867.21;;;12.25;75.24
61357;BME280;47227;46.752;23.576;2023-04-01T09:32:10;94855.28;;;12.04;76.07
61357;BME280;47227;46.752;23.576;2023-04-01T09:38:39;94845.22;;;11.78;78.36
61357;BME280;47227;46.752;23.576;2023-04-01T09:41:41;94846.17;;;11.73;78.54
61357;BME280;47227;46.752;23.576;2023-04-01T09:45:00;94845.39;;;11.46;79.61
61357;BME280;47227;46.752;23.576;2023-04-01T09:48:21;94839.07;;;11.20;81.32
61357;BME280;47227;46.752;23.576;2023-04-01T10:01:19;94826.38;;;12.18;78.92
61357;BME280;47227;46.752;23.576;2023-04-01T10:04:35;94823.77;;;12.49;77.31
61357;BME280;47227;46.752;23.576;2023-04-01T10:08:03;94831.36;;;12.84;76.68
61357;BME280;47227;46.752;23.576;2023-04-01T10:14:46;94830.82;;;12.92;74.55
61357;BME280;47227;46.752;23.576;2023-04-01T10:21:09;94847.83;;;13.13;73.36
61357;BME280;47227;46.752;23.576;2023-04-01T10:31:14;94851.64;;;13.26;72.08
61357;BME280;47227;46.752;23.576;2023-04-01T10:34:53;94849.24;;;13.20;71.74
61357;BME280;47227;46.752;23.576;2023-04-01T10:38:11;94842.14;;;13.15;71.29
61357;BME280;47227;46.752;23.576;2023-04-01T10:41:46;94838.84;;;13.00;71.18
61357;BME280;47227;46.752;23.576;2023-04-01T10:52:04;94834.42;;;13.56;71.95
61357;BME280;47227;46.752;23.576;2023-04-01T11:06:59;94830.99;;;13.73;69.73
61357;BME280;47227;46.752;23.576;2023-04-01T11:10:16;94829.33;;;13.74;69.01
61357;BME280;47227;46.752;23.576;2023-04-01T11:23:32;94824.42;;;13.80;69.05
61357;BME280;47227;46.752;23.576;2023-04-01T11:27:05;94824.45;;;13.73;69.09
61357;BME280;47227;46.752;23.576;2023-04-01T20:28:47;95000.73;;;8.54;81.21
61357;BME280;47227;46.752;23.576;2023-04-01T20:32:05;95003.17;;;8.48;82.38
61357;BME280;47227;46.752;23.576;2023-04-01T21:14:48;95013.64;;;8.54;80.10
61357;BME280;47227;46.752;23.576;2023-04-01T22:24:16;95036.69;;;8.32;78.05
61357;BME280;47227;46.752;23.576;2023-04-01T22:26:55;95036.33;;;8.31;77.95
61357;BME280;47227;46.752;23.576;2023-04-01T22:29:31;95038.00;;;8.29;78.04
61357;BME280;47227;46.752;23.576;2023-04-01T22:35:04;95041.60;;;8.31;78.12
61357;BME280;47227;46.752;23.576;2023-04-01T22:37:43;95044.94;;;8.33;78.18
61357;BME280;47227;46.752;23.576;2023-04-01T22:40:23;95045.71;;;8.37;78.31
61357;BME280;47227;46.752;23.576;2023-04-01T22:43:00;95048.51;;;8.41;78.27
61357;BME280;47227;46.752;23.576;2023-04-01T22:48:27;95051.95;;;8.48;78.41
61357;BME280;47227;46.752;23.576;2023-04-01T22:51:18;95052.85;;;8.51;78.27
61357;BME280;47227;46.752;23.576;2023-04-01T22:53:59;95048.71;;;8.54;78.24
61357;BME280;47227;46.752;23.576;2023-04-01T22:56:37;95051.11;;;8.56;78.43
61357;BME280;47227;46.752;23.576;2023-04-01T22:59:14;95050.48;;;8.58;78.47
61357;BME280;47227;46.752;23.576;2023-04-01T23:01:49;95051.27;;;8.58;78.31
61357;BME280;47227;46.752;23.576;2023-04-01T23:04:23;95051.74;;;8.55;78.16
61357;BME280;47227;46.752;23.576;2023-04-01T23:06:57;95054.67;;;8.51;77.90
61357;BME280;47227;46.752;23.576;2023-04-01T23:09:34;95058.02;;;8.46;77.92
61357;BME280;47227;46.752;23.576;2023-04-01T23:12:06;95057.02;;;8.40;77.85
61357;BME280;47227;46.752;23.576;2023-04-01T23:14:43;95060.51;;;8.36;77.67
61357;BME280;47227;46.752;23.576;2023-04-01T23:17:32;95058.89;;;8.33;77.68
61357;BME280;47227;46.752;23.576;2023-04-01T23:20:27;95055.50;;;8.29;77.70
61357;BME280;47227;46.752;23.576;2023-04-01T23:23:15;95056.33;;;8.27;77.69
61357;BME280;47227;46.752;23.576;2023-04-01T23:25:55;95059.20;;;8.26;77.71
61357;BME280;47227;46.752;23.576;2023-04-01T23:28:53;95062.40;;;8.26;77.74
61357;BME280;47227;46.752;23.576;2023-04-01T23:45:27;95066.98;;;8.16;77.60
61357;BME280;47227;46.752;23.576;2023-04-01T23:47:55;95071.74;;;8.15;77.66
61357;BME280;47227;46.752;23.576;2023-04-01T23:50:25;95070.17;;;8.17;77.90
61357;BME280;47227;46.752;23.576;2023-04-01T23:53:00;95074.20;;;8.20;77.94
61357;BME280;47227;46.752;23.576;2023-04-01T23:55:31;95074.73;;;8.25;78.01
61357;BME280;47227;46.752;23.576;2023-04-01T23:58:12;95072.16;;;8.29;77.93
